Salisbury Ocean City Wicomico Regional Airport

Date: 2024-06-11 05:36:00Z

Type: SPECI

Weather: Heavy Thunderstorms, Gusty Winds

Winds: 310° at 11 kts, Gusting to 29 kts

Visibility: 3

Ceiling (AGL FT): Clouds BROKEN at 3600, BROKEN at 4800, OVERCAST at 6000, OVERCAST at 4200

RAW METAR: KSBY 110536Z AUTO 31011G29KT 3SM +TSRA BR BKN036 BKN048 OVC060 16/15 A2987 RMK AO2 PK WND 28041/0508 LTG DSNT N AND NE AND S RAB09 TSB16 P0033 T01610150

project-image